sensor_id;sensor_type;location;lat;lon;timestamp;P1;durP1;ratioP1;P2;durP2;ratioP2
4422;SDS011;2224;49.814;8.650;2022-08-01T00:02:03;3.43;;;2.70;;
4422;SDS011;2224;49.814;8.650;2022-08-01T00:04:29;4.40;;;2.70;;
4422;SDS011;2224;49.814;8.650;2022-08-01T00:06:54;3.83;;;3.00;;
4422;SDS011;2224;49.814;8.650;2022-08-01T00:09:19;3.13;;;2.93;;
4422;SDS011;2224;49.814;8.650;2022-08-01T00:11:45;3.03;;;2.80;;
4422;SDS011;2224;49.814;8.650;2022-08-01T00:14:10;3.20;;;2.90;;
4422;SDS011;2224;49.814;8.650;2022-08-01T00:16:36;2.80;;;2.60;;
4422;SDS011;2224;49.814;8.650;2022-08-01T00:19:02;3.03;;;2.73;;
4422;SDS011;2224;49.814;8.650;2022-08-01T00:21:27;4.60;;;3.20;;
4422;SDS011;2224;49.814;8.650;2022-08-01T00:23:52;3.50;;;3.20;;
4422;SDS011;2224;49.814;8.650;2022-08-01T00:26:17;3.20;;;2.50;;
4422;SDS011;2224;49.814;8.650;2022-08-01T00:28:43;2.87;;;2.67;;
4422;SDS011;2224;49.814;8.650;2022-08-01T00:31:08;2.90;;;2.40;;
4422;SDS011;2224;49.814;8.650;2022-08-01T00:33:34;3.40;;;3.00;;
4422;SDS011;2224;49.814;8.650;2022-08-01T00:35:59;2.67;;;2.40;;
4422;SDS011;2224;49.814;8.650;2022-08-01T00:38:24;2.90;;;2.70;;
4422;SDS011;2224;49.814;8.650;2022-08-01T00:40:50;2.50;;;2.30;;
4422;SDS011;2224;49.814;8.650;2022-08-01T00:43:15;5.87;;;2.80;;
4422;SDS011;2224;49.814;8.650;2022-08-01T00:45:41;5.00;;;2.97;;
4422;SDS011;2224;49.814;8.650;2022-08-01T00:48:06;3.43;;;2.80;;
4422;SDS011;2224;49.814;8.650;2022-08-01T00:50:31;3.70;;;2.70;;
4422;SDS011;2224;49.814;8.650;2022-08-01T00:52:57;3.83;;;2.63;;
4422;SDS011;2224;49.814;8.650;2022-08-01T00:55:23;6.13;;;3.00;;
4422;SDS011;2224;49.814;8.650;2022-08-01T00:57:49;3.10;;;2.40;;
4422;SDS011;2224;49.814;8.650;2022-08-01T01:00:15;2.80;;;2.60;;
4422;SDS011;2224;49.814;8.650;2022-08-01T01:02:40;3.03;;;2.83;;
4422;SDS011;2224;49.814;8.650;2022-08-01T01:05:05;3.80;;;2.37;;
4422;SDS011;2224;49.814;8.650;2022-08-01T01:07:37;2.67;;;2.43;;
4422;SDS011;2224;49.814;8.650;2022-08-01T01:10:46;2.50;;;2.30;;
4422;SDS011;2224;49.814;8.650;2022-08-01T01:15:50;3.17;;;2.87;;
4422;SDS011;2224;49.814;8.650;2022-08-01T01:18:22;5.33;;;2.90;;
4422;SDS011;2224;49.814;8.650;2022-08-01T01:20:51;2.90;;;2.60;;
4422;SDS011;2224;49.814;8.650;2022-08-01T01:34:38;4.33;;;2.97;;
4422;SDS011;2224;49.814;8.650;2022-08-01T01:37:06;3.03;;;2.20;;
4422;SDS011;2224;49.814;8.650;2022-08-01T01:39:34;2.53;;;2.33;;
4422;SDS011;2224;49.814;8.650;2022-08-01T01:42:00;3.57;;;2.47;;
4422;SDS011;2224;49.814;8.650;2022-08-01T01:44:27;3.47;;;2.23;;
4422;SDS011;2224;49.814;8.650;2022-08-01T01:46:53;2.57;;;2.37;;
4422;SDS011;2224;49.814;8.650;2022-08-01T01:49:21;3.00;;;2.60;;
4422;SDS011;2224;49.814;8.650;2022-08-01T01:51:49;3.30;;;2.23;;
4422;SDS011;2224;49.814;8.650;2022-08-01T01:54:15;2.30;;;2.03;;
4422;SDS011;2224;49.814;8.650;2022-08-01T01:56:41;3.83;;;2.30;;
4422;SDS011;2224;49.814;8.650;2022-08-01T01:59:13;3.40;;;2.30;;
4422;SDS011;2224;49.814;8.650;2022-08-01T02:01:41;3.87;;;2.27;;
4422;SDS011;2224;49.814;8.650;2022-08-01T02:04:06;3.23;;;2.50;;
4422;SDS011;2224;49.814;8.650;2022-08-01T02:06:32;2.33;;;2.13;;
4422;SDS011;2224;49.814;8.650;2022-08-01T02:08:58;3.07;;;1.93;;
4422;SDS011;2224;49.814;8.650;2022-08-01T02:11:24;2.33;;;2.07;;
4422;SDS011;2224;49.814;8.650;2022-08-01T02:13:54;2.50;;;2.30;;
4422;SDS011;2224;49.814;8.650;2022-08-01T02:16:23;2.20;;;1.90;;
4422;SDS011;2224;49.814;8.650;2022-08-01T02:18:51;2.47;;;2.20;;
4422;SDS011;2224;49.814;8.650;2022-08-01T02:21:18;3.30;;;2.50;;
4422;SDS011;2224;49.814;8.650;2022-08-01T02:23:47;2.67;;;1.90;;
4422;SDS011;2224;49.814;8.650;2022-08-01T02:26:14;2.27;;;2.07;;
4422;SDS011;2224;49.814;8.650;2022-08-01T02:28:43;2.40;;;2.07;;
4422;SDS011;2224;49.814;8.650;2022-08-01T02:31:13;2.50;;;1.90;;
4422;SDS011;2224;49.814;8.650;2022-08-01T02:33:41;1.97;;;1.77;;
4422;SDS011;2224;49.814;8.650;2022-08-01T02:36:08;4.33;;;1.80;;
4422;SDS011;2224;49.814;8.650;2022-08-01T02:38:35;2.23;;;1.97;;
4422;SDS011;2224;49.814;8.650;2022-08-01T02:41:05;2.97;;;1.90;;
4422;SDS011;2224;49.814;8.650;2022-08-01T02:43:34;2.83;;;1.90;;
4422;SDS011;2224;49.814;8.650;2022-08-01T02:46:02;2.00;;;1.87;;
4422;SDS011;2224;49.814;8.650;2022-08-01T02:48:30;3.60;;;2.00;;
4422;SDS011;2224;49.814;8.650;2022-08-01T02:50:57;2.13;;;1.60;;
4422;SDS011;2224;49.814;8.650;2022-08-01T02:53:24;2.40;;;1.90;;
4422;SDS011;2224;49.814;8.650;2022-08-01T02:55:50;2.20;;;1.93;;
4422;SDS011;2224;49.814;8.650;2022-08-01T02:58:16;2.10;;;1.83;;
4422;SDS011;2224;49.814;8.650;2022-08-01T03:00:43;4.67;;;1.80;;
4422;SDS011;2224;49.814;8.650;2022-08-01T03:03:09;2.77;;;1.60;;
4422;SDS011;2224;49.814;8.650;2022-08-01T03:05:36;4.83;;;1.77;;
4422;SDS011;2224;49.814;8.650;2022-08-01T03:08:02;2.10;;;1.90;;
4422;SDS011;2224;49.814;8.650;2022-08-01T03:10:28;2.67;;;1.70;;
4422;SDS011;2224;49.814;8.650;2022-08-01T03:12:54;2.90;;;1.97;;
4422;SDS011;2224;49.814;8.650;2022-08-01T03:15:20;4.80;;;1.83;;
4422;SDS011;2224;49.814;8.650;2022-08-01T03:17:46;1.93;;;1.60;;
4422;SDS011;2224;49.814;8.650;2022-08-01T03:20:13;2.33;;;1.60;;
4422;SDS011;2224;49.814;8.650;2022-08-01T03:22:40;3.80;;;2.10;;
4422;SDS011;2224;49.814;8.650;2022-08-01T03:25:07;2.93;;;1.70;;
4422;SDS011;2224;49.814;8.650;2022-08-01T03:27:33;1.80;;;1.70;;
4422;SDS011;2224;49.814;8.650;2022-08-01T03:30:00;1.90;;;1.70;;
4422;SDS011;2224;49.814;8.650;2022-08-01T03:32:28;2.90;;;1.70;;
4422;SDS011;2224;49.814;8.650;2022-08-01T03:34:54;2.43;;;1.60;;
4422;SDS011;2224;49.814;8.650;2022-08-01T03:37:30;5.03;;;2.40;;
4422;SDS011;2224;49.814;8.650;2022-08-01T03:42:43;2.43;;;1.80;;
4422;SDS011;2224;49.814;8.650;2022-08-01T03:45:11;2.33;;;1.93;;
4422;SDS011;2224;49.814;8.650;2022-08-01T03:47:42;1.70;;;1.47;;
4422;SDS011;2224;49.814;8.650;2022-08-01T03:50:08;2.57;;;1.60;;
4422;SDS011;2224;49.814;8.650;2022-08-01T03:52:34;1.83;;;1.70;;
4422;SDS011;2224;49.814;8.650;2022-08-01T03:55:04;3.73;;;2.10;;
4422;SDS011;2224;49.814;8.650;2022-08-01T03:57:32;2.47;;;1.90;;
4422;SDS011;2224;49.814;8.650;2022-08-01T03:59:58;2.07;;;1.87;;
4422;SDS011;2224;49.814;8.650;2022-08-01T04:02:25;2.43;;;1.90;;
4422;SDS011;2224;49.814;8.650;2022-08-01T04:04:51;2.67;;;1.87;;
4422;SDS011;2224;49.814;8.650;2022-08-01T04:07:28;2.63;;;2.07;;
4422;SDS011;2224;49.814;8.650;2022-08-01T04:09:56;3.70;;;2.00;;
4422;SDS011;2224;49.814;8.650;2022-08-01T04:12:22;2.90;;;1.73;;
4422;SDS011;2224;49.814;8.650;2022-08-01T04:14:47;3.83;;;2.40;;
4422;SDS011;2224;49.814;8.650;2022-08-01T04:17:13;2.10;;;1.90;;
4422;SDS011;2224;49.814;8.650;2022-08-01T04:19:39;2.27;;;1.67;;
4422;SDS011;2224;49.814;8.650;2022-08-01T04:22:05;3.60;;;2.10;;
4422;SDS011;2224;49.814;8.650;2022-08-01T04:24:30;4.97;;;1.77;;
4422;SDS011;2224;49.814;8.650;2022-08-01T04:26:58;2.47;;;2.27;;
4422;SDS011;2224;49.814;8.650;2022-08-01T04:29:25;3.53;;;2.43;;
4422;SDS011;2224;49.814;8.650;2022-08-01T04:31:53;2.10;;;1.90;;
4422;SDS011;2224;49.814;8.650;2022-08-01T04:34:20;3.83;;;2.20;;
4422;SDS011;2224;49.814;8.650;2022-08-01T04:36:47;3.37;;;2.03;;
4422;SDS011;2224;49.814;8.650;2022-08-01T04:39:14;2.10;;;1.80;;
4422;SDS011;2224;49.814;8.650;2022-08-01T04:41:40;2.30;;;2.10;;
4422;SDS011;2224;49.814;8.650;2022-08-01T04:44:06;2.50;;;1.97;;
4422;SDS011;2224;49.814;8.650;2022-08-01T04:46:31;2.57;;;2.37;;
4422;SDS011;2224;49.814;8.650;2022-08-01T04:48:58;2.57;;;2.10;;
4422;SDS011;2224;49.814;8.650;2022-08-01T04:51:25;4.30;;;2.10;;
4422;SDS011;2224;49.814;8.650;2022-08-01T04:53:51;2.43;;;2.23;;
4422;SDS011;2224;49.814;8.650;2022-08-01T04:56:16;3.03;;;2.57;;
4422;SDS011;2224;49.814;8.650;2022-08-01T04:58:42;2.43;;;2.23;;
4422;SDS011;2224;49.814;8.650;2022-08-01T05:01:08;2.20;;;2.00;;
4422;SDS011;2224;49.814;8.650;2022-08-01T05:03:34;2.23;;;2.00;;
4422;SDS011;2224;49.814;8.650;2022-08-01T05:05:59;2.57;;;1.70;;
4422;SDS011;2224;49.814;8.650;2022-08-01T05:08:25;4.50;;;1.97;;
4422;SDS011;2224;49.814;8.650;2022-08-01T05:10:50;2.40;;;2.20;;
4422;SDS011;2224;49.814;8.650;2022-08-01T05:13:15;3.10;;;2.60;;
4422;SDS011;2224;49.814;8.650;2022-08-01T05:15:41;2.73;;;2.27;;
4422;SDS011;2224;49.814;8.650;2022-08-01T05:18:06;2.20;;;2.00;;
4422;SDS011;2224;49.814;8.650;2022-08-01T05:20:32;4.40;;;2.13;;
4422;SDS011;2224;49.814;8.650;2022-08-01T05:22:57;2.33;;;1.70;;
4422;SDS011;2224;49.814;8.650;2022-08-01T05:25:22;2.63;;;2.20;;
4422;SDS011;2224;49.814;8.650;2022-08-01T05:27:48;5.13;;;2.27;;
4422;SDS011;2224;49.814;8.650;2022-08-01T05:30:14;3.93;;;1.97;;
4422;SDS011;2224;49.814;8.650;2022-08-01T05:32:39;2.50;;;2.00;;
4422;SDS011;2224;49.814;8.650;2022-08-01T05:35:05;3.70;;;2.60;;
4422;SDS011;2224;49.814;8.650;2022-08-01T05:37:32;2.70;;;2.30;;
4422;SDS011;2224;49.814;8.650;2022-08-01T05:39:57;2.27;;;2.10;;
4422;SDS011;2224;49.814;8.650;2022-08-01T05:42:22;2.77;;;2.13;;
4422;SDS011;2224;49.814;8.650;2022-08-01T05:44:47;8.23;;;3.00;;
4422;SDS011;2224;49.814;8.650;2022-08-01T05:47:13;4.80;;;2.63;;
4422;SDS011;2224;49.814;8.650;2022-08-01T05:49:38;4.63;;;2.00;;
4422;SDS011;2224;49.814;8.650;2022-08-01T05:52:04;3.20;;;2.00;;
4422;SDS011;2224;49.814;8.650;2022-08-01T05:54:30;3.90;;;2.30;;
4422;SDS011;2224;49.814;8.650;2022-08-01T05:56:55;3.13;;;2.17;;
4422;SDS011;2224;49.814;8.650;2022-08-01T05:59:24;2.80;;;2.30;;
4422;SDS011;2224;49.814;8.650;2022-08-01T06:01:49;3.00;;;1.90;;
4422;SDS011;2224;49.814;8.650;2022-08-01T06:04:15;4.70;;;2.30;;
4422;SDS011;2224;49.814;8.650;2022-08-01T06:06:40;2.67;;;2.30;;
4422;SDS011;2224;49.814;8.650;2022-08-01T06:09:05;3.47;;;2.17;;
4422;SDS011;2224;49.814;8.650;2022-08-01T06:11:31;2.90;;;2.50;;
4422;SDS011;2224;49.814;8.650;2022-08-01T06:13:56;3.50;;;2.10;;
4422;SDS011;2224;49.814;8.650;2022-08-01T06:16:21;2.83;;;2.20;;
4422;SDS011;2224;49.814;8.650;2022-08-01T06:18:47;3.73;;;2.40;;
4422;SDS011;2224;49.814;8.650;2022-08-01T06:21:12;3.30;;;1.97;;
4422;SDS011;2224;49.814;8.650;2022-08-01T06:23:38;3.90;;;2.30;;
4422;SDS011;2224;49.814;8.650;2022-08-01T06:26:03;3.20;;;2.40;;
4422;SDS011;2224;49.814;8.650;2022-08-01T06:28:29;2.17;;;1.97;;
4422;SDS011;2224;49.814;8.650;2022-08-01T06:30:54;4.90;;;2.40;;
4422;SDS011;2224;49.814;8.650;2022-08-01T06:33:19;2.10;;;2.00;;
4422;SDS011;2224;49.814;8.650;2022-08-01T06:35:45;2.23;;;2.03;;
4422;SDS011;2224;49.814;8.650;2022-08-01T06:38:11;2.97;;;2.00;;
4422;SDS011;2224;49.814;8.650;2022-08-01T06:40:36;2.67;;;2.00;;
4422;SDS011;2224;49.814;8.650;2022-08-01T06:43:03;4.53;;;2.60;;
4422;SDS011;2224;49.814;8.650;2022-08-01T06:45:28;3.13;;;2.50;;
4422;SDS011;2224;49.814;8.650;2022-08-01T06:47:54;3.63;;;2.47;;
4422;SDS011;2224;49.814;8.650;2022-08-01T06:50:19;2.80;;;2.43;;
4422;SDS011;2224;49.814;8.650;2022-08-01T06:52:44;3.97;;;2.37;;
4422;SDS011;2224;49.814;8.650;2022-08-01T06:55:10;2.80;;;2.60;;
4422;SDS011;2224;49.814;8.650;2022-08-01T06:57:36;2.90;;;2.70;;
4422;SDS011;2224;49.814;8.650;2022-08-01T07:00:05;8.23;;;4.77;;
4422;SDS011;2224;49.814;8.650;2022-08-01T07:02:36;4.90;;;3.37;;
4422;SDS011;2224;49.814;8.650;2022-08-01T07:05:02;2.70;;;2.50;;
4422;SDS011;2224;49.814;8.650;2022-08-01T07:07:29;12.03;;;2.90;;
4422;SDS011;2224;49.814;8.650;2022-08-01T07:09:54;3.73;;;3.43;;
4422;SDS011;2224;49.814;8.650;2022-08-01T07:12:20;3.47;;;3.27;;
4422;SDS011;2224;49.814;8.650;2022-08-01T07:14:45;3.83;;;3.40;;
4422;SDS011;2224;49.814;8.650;2022-08-01T07:17:10;3.93;;;3.50;;
4422;SDS011;2224;49.814;8.650;2022-08-01T07:19:36;6.60;;;3.70;;
4422;SDS011;2224;49.814;8.650;2022-08-01T07:22:02;3.30;;;3.00;;
4422;SDS011;2224;49.814;8.650;2022-08-01T07:24:27;4.30;;;2.77;;
4422;SDS011;2224;49.814;8.650;2022-08-01T07:26:54;3.40;;;3.13;;
4422;SDS011;2224;49.814;8.650;2022-08-01T07:29:26;3.20;;;2.87;;
4422;SDS011;2224;49.814;8.650;2022-08-01T07:31:52;3.13;;;2.93;;
4422;SDS011;2224;49.814;8.650;2022-08-01T07:34:18;3.50;;;2.20;;
4422;SDS011;2224;49.814;8.650;2022-08-01T07:36:44;3.17;;;2.87;;
4422;SDS011;2224;49.814;8.650;2022-08-01T07:39:09;3.53;;;2.60;;
4422;SDS011;2224;49.814;8.650;2022-08-01T07:41:34;3.70;;;3.40;;
4422;SDS011;2224;49.814;8.650;2022-08-01T07:43:59;3.63;;;3.33;;
4422;SDS011;2224;49.814;8.650;2022-08-01T07:46:25;4.43;;;2.80;;
4422;SDS011;2224;49.814;8.650;2022-08-01T07:48:50;2.60;;;2.40;;
4422;SDS011;2224;49.814;8.650;2022-08-01T07:51:15;2.90;;;2.60;;
4422;SDS011;2224;49.814;8.650;2022-08-01T07:53:41;2.70;;;2.50;;
4422;SDS011;2224;49.814;8.650;2022-08-01T07:56:06;2.63;;;2.43;;
4422;SDS011;2224;49.814;8.650;2022-08-01T07:58:32;4.43;;;2.70;;
4422;SDS011;2224;49.814;8.650;2022-08-01T08:00:58;3.07;;;2.77;;
4422;SDS011;2224;49.814;8.650;2022-08-01T08:03:23;3.27;;;2.97;;
4422;SDS011;2224;49.814;8.650;2022-08-01T08:05:48;4.00;;;3.17;;
4422;SDS011;2224;49.814;8.650;2022-08-01T08:08:14;4.37;;;2.70;;
4422;SDS011;2224;49.814;8.650;2022-08-01T08:10:40;3.43;;;2.87;;
4422;SDS011;2224;49.814;8.650;2022-08-01T08:13:06;2.83;;;2.60;;
4422;SDS011;2224;49.814;8.650;2022-08-01T08:15:31;3.17;;;2.87;;
4422;SDS011;2224;49.814;8.650;2022-08-01T08:17:57;2.73;;;2.50;;
4422;SDS011;2224;49.814;8.650;2022-08-01T08:20:22;2.97;;;2.77;;
4422;SDS011;2224;49.814;8.650;2022-08-01T08:22:50;3.40;;;3.10;;
4422;SDS011;2224;49.814;8.650;2022-08-01T08:25:16;2.90;;;2.70;;
4422;SDS011;2224;49.814;8.650;2022-08-01T08:27:43;4.00;;;2.87;;
4422;SDS011;2224;49.814;8.650;2022-08-01T08:30:09;3.80;;;2.70;;
4422;SDS011;2224;49.814;8.650;2022-08-01T08:32:36;4.10;;;2.57;;
4422;SDS011;2224;49.814;8.650;2022-08-01T08:35:01;3.63;;;3.30;;
4422;SDS011;2224;49.814;8.650;2022-08-01T08:37:27;2.87;;;2.67;;
4422;SDS011;2224;49.814;8.650;2022-08-01T08:39:52;2.70;;;2.50;;
4422;SDS011;2224;49.814;8.650;2022-08-01T08:42:18;3.10;;;2.70;;
4422;SDS011;2224;49.814;8.650;2022-08-01T08:44:43;3.90;;;2.50;;
4422;SDS011;2224;49.814;8.650;2022-08-01T08:47:10;2.77;;;2.57;;
4422;SDS011;2224;49.814;8.650;2022-08-01T08:49:36;2.50;;;2.30;;
4422;SDS011;2224;49.814;8.650;2022-08-01T08:52:03;3.53;;;2.50;;
4422;SDS011;2224;49.814;8.650;2022-08-01T08:54:29;4.27;;;2.90;;
4422;SDS011;2224;49.814;8.650;2022-08-01T08:56:55;2.90;;;2.70;;
4422;SDS011;2224;49.814;8.650;2022-08-01T08:59:21;3.40;;;2.60;;
4422;SDS011;2224;49.814;8.650;2022-08-01T09:01:49;4.30;;;2.70;;
4422;SDS011;2224;49.814;8.650;2022-08-01T09:04:14;2.90;;;2.70;;
4422;SDS011;2224;49.814;8.650;2022-08-01T09:06:39;3.20;;;2.73;;
4422;SDS011;2224;49.814;8.650;2022-08-01T09:09:05;4.00;;;2.80;;
4422;SDS011;2224;49.814;8.650;2022-08-01T09:11:32;5.53;;;2.87;;
4422;SDS011;2224;49.814;8.650;2022-08-01T09:14:14;5.10;;;2.80;;
4422;SDS011;2224;49.814;8.650;2022-08-01T09:16:47;3.77;;;2.83;;
4422;SDS011;2224;49.814;8.650;2022-08-01T09:19:25;3.13;;;2.90;;
4422;SDS011;2224;49.814;8.650;2022-08-01T09:21:57;4.00;;;3.10;;
4422;SDS011;2224;49.814;8.650;2022-08-01T09:24:25;2.67;;;2.40;;
4422;SDS011;2224;49.814;8.650;2022-08-01T09:26:51;2.87;;;2.67;;
4422;SDS011;2224;49.814;8.650;2022-08-01T09:29:18;2.90;;;2.70;;
4422;SDS011;2224;49.814;8.650;2022-08-01T09:31:45;2.93;;;2.63;;
4422;SDS011;2224;49.814;8.650;2022-08-01T09:34:11;2.83;;;2.63;;
4422;SDS011;2224;49.814;8.650;2022-08-01T09:36:50;2.80;;;2.60;;
4422;SDS011;2224;49.814;8.650;2022-08-01T09:39:19;3.27;;;2.50;;
4422;SDS011;2224;49.814;8.650;2022-08-01T09:41:45;2.80;;;2.30;;
4422;SDS011;2224;49.814;8.650;2022-08-01T09:44:11;4.60;;;2.77;;
4422;SDS011;2224;49.814;8.650;2022-08-01T09:46:48;3.60;;;3.30;;
4422;SDS011;2224;49.814;8.650;2022-08-01T09:49:26;2.90;;;2.70;;
4422;SDS011;2224;49.814;8.650;2022-08-01T09:51:52;3.83;;;2.90;;
4422;SDS011;2224;49.814;8.650;2022-08-01T09:54:27;2.80;;;2.60;;
4422;SDS011;2224;49.814;8.650;2022-08-01T09:56:54;3.70;;;3.10;;
4422;SDS011;2224;49.814;8.650;2022-08-01T09:59:19;3.50;;;2.80;;
4422;SDS011;2224;49.814;8.650;2022-08-01T10:01:45;3.40;;;2.50;;
4422;SDS011;2224;49.814;8.650;2022-08-01T10:06:39;3.57;;;2.87;;
4422;SDS011;2224;49.814;8.650;2022-08-01T10:09:07;3.00;;;2.50;;
4422;SDS011;2224;49.814;8.650;2022-08-01T10:11:32;3.10;;;2.53;;
4422;SDS011;2224;49.814;8.650;2022-08-01T10:13:58;3.13;;;2.93;;
4422;SDS011;2224;49.814;8.650;2022-08-01T10:16:24;4.47;;;2.93;;
4422;SDS011;2224;49.814;8.650;2022-08-01T10:18:51;5.07;;;2.80;;
4422;SDS011;2224;49.814;8.650;2022-08-01T10:21:18;3.27;;;2.97;;
4422;SDS011;2224;49.814;8.650;2022-08-01T10:23:43;4.33;;;3.10;;
4422;SDS011;2224;49.814;8.650;2022-08-01T10:26:10;3.70;;;3.30;;
4422;SDS011;2224;49.814;8.650;2022-08-01T10:28:37;3.07;;;2.77;;
4422;SDS011;2224;49.814;8.650;2022-08-01T10:31:03;3.10;;;2.57;;
4422;SDS011;2224;49.814;8.650;2022-08-01T10:33:29;3.10;;;2.90;;
4422;SDS011;2224;49.814;8.650;2022-08-01T10:35:54;3.57;;;3.27;;
4422;SDS011;2224;49.814;8.650;2022-08-01T10:38:20;2.70;;;2.50;;
4422;SDS011;2224;49.814;8.650;2022-08-01T10:40:45;3.40;;;2.57;;
4422;SDS011;2224;49.814;8.650;2022-08-01T10:43:11;2.70;;;2.50;;
4422;SDS011;2224;49.814;8.650;2022-08-01T10:45:40;2.73;;;2.53;;
4422;SDS011;2224;49.814;8.650;2022-08-01T10:48:12;3.47;;;2.80;;
4422;SDS011;2224;49.814;8.650;2022-08-01T10:50:42;4.33;;;3.00;;
4422;SDS011;2224;49.814;8.650;2022-08-01T10:53:10;2.73;;;2.53;;
4422;SDS011;2224;49.814;8.650;2022-08-01T10:58:27;3.30;;;2.77;;
4422;SDS011;2224;49.814;8.650;2022-08-01T11:03:42;2.60;;;2.40;;
4422;SDS011;2224;49.814;8.650;2022-08-01T11:06:16;2.50;;;2.30;;
4422;SDS011;2224;49.814;8.650;2022-08-01T11:08:42;3.27;;;2.50;;
4422;SDS011;2224;49.814;8.650;2022-08-01T11:11:15;4.83;;;2.80;;
4422;SDS011;2224;49.814;8.650;2022-08-01T11:14:00;2.80;;;2.60;;
4422;SDS011;2224;49.814;8.650;2022-08-01T11:16:27;3.10;;;2.47;;
4422;SDS011;2224;49.814;8.650;2022-08-01T11:18:53;3.20;;;2.60;;
4422;SDS011;2224;49.814;8.650;2022-08-01T11:21:18;3.10;;;2.50;;
4422;SDS011;2224;49.814;8.650;2022-08-01T11:23:47;2.50;;;2.30;;
4422;SDS011;2224;49.814;8.650;2022-08-01T11:26:14;2.90;;;2.67;;
4422;SDS011;2224;49.814;8.650;2022-08-01T11:28:40;2.63;;;2.43;;
4422;SDS011;2224;49.814;8.650;2022-08-01T11:41:13;1.90;;;1.80;;
4422;SDS011;2224;49.814;8.650;2022-08-01T11:54:28;1.93;;;1.80;;
4422;SDS011;2224;49.814;8.650;2022-08-01T11:57:01;1.60;;;1.50;;
4422;SDS011;2224;49.814;8.650;2022-08-01T11:59:35;3.10;;;2.07;;
4422;SDS011;2224;49.814;8.650;2022-08-01T12:02:01;1.93;;;1.83;;
4422;SDS011;2224;49.814;8.650;2022-08-01T12:04:30;2.73;;;2.47;;
4422;SDS011;2224;49.814;8.650;2022-08-01T12:07:15;2.00;;;1.80;;
4422;SDS011;2224;49.814;8.650;2022-08-01T12:09:41;2.27;;;1.70;;
4422;SDS011;2224;49.814;8.650;2022-08-01T12:12:07;2.83;;;2.03;;
4422;SDS011;2224;49.814;8.650;2022-08-01T12:14:33;3.43;;;1.80;;
4422;SDS011;2224;49.814;8.650;2022-08-01T12:16:59;2.10;;;2.00;;
4422;SDS011;2224;49.814;8.650;2022-08-01T12:19:24;3.47;;;2.30;;
4422;SDS011;2224;49.814;8.650;2022-08-01T12:22:09;1.93;;;1.80;;
4422;SDS011;2224;49.814;8.650;2022-08-01T12:24:36;2.30;;;2.10;;
4422;SDS011;2224;49.814;8.650;2022-08-01T12:27:03;2.30;;;1.43;;
4422;SDS011;2224;49.814;8.650;2022-08-01T12:29:39;1.80;;;1.70;;
4422;SDS011;2224;49.814;8.650;2022-08-01T12:32:22;2.30;;;2.10;;
4422;SDS011;2224;49.814;8.650;2022-08-01T12:34:48;2.10;;;1.87;;
4422;SDS011;2224;49.814;8.650;2022-08-01T12:37:14;2.00;;;1.90;;
4422;SDS011;2224;49.814;8.650;2022-08-01T12:39:40;2.30;;;2.10;;
4422;SDS011;2224;49.814;8.650;2022-08-01T12:42:06;1.60;;;1.50;;
4422;SDS011;2224;49.814;8.650;2022-08-01T12:44:32;2.00;;;1.80;;
4422;SDS011;2224;49.814;8.650;2022-08-01T12:46:58;4.73;;;2.03;;
4422;SDS011;2224;49.814;8.650;2022-08-01T12:49:24;2.00;;;1.80;;
4422;SDS011;2224;49.814;8.650;2022-08-01T12:51:49;2.10;;;1.90;;
4422;SDS011;2224;49.814;8.650;2022-08-01T12:54:15;1.80;;;1.70;;
4422;SDS011;2224;49.814;8.650;2022-08-01T12:56:40;5.73;;;2.33;;
4422;SDS011;2224;49.814;8.650;2022-08-01T12:59:19;2.10;;;2.00;;
4422;SDS011;2224;49.814;8.650;2022-08-01T13:01:50;2.10;;;2.00;;
4422;SDS011;2224;49.814;8.650;2022-08-01T13:04:21;2.90;;;1.93;;
4422;SDS011;2224;49.814;8.650;2022-08-01T13:06:47;2.00;;;1.90;;
4422;SDS011;2224;49.814;8.650;2022-08-01T13:09:13;2.10;;;1.90;;
4422;SDS011;2224;49.814;8.650;2022-08-01T13:11:42;1.80;;;1.70;;
4422;SDS011;2224;49.814;8.650;2022-08-01T13:14:08;2.67;;;1.70;;
4422;SDS011;2224;49.814;8.650;2022-08-01T13:16:34;1.63;;;1.53;;
4422;SDS011;2224;49.814;8.650;2022-08-01T13:19:11;3.60;;;1.77;;
4422;SDS011;2224;49.814;8.650;2022-08-01T13:21:36;2.10;;;1.70;;
4422;SDS011;2224;49.814;8.650;2022-08-01T13:24:11;2.43;;;1.70;;
4422;SDS011;2224;49.814;8.650;2022-08-01T13:29:20;2.17;;;1.60;;
4422;SDS011;2224;49.814;8.650;2022-08-01T13:31:48;1.87;;;1.77;;
4422;SDS011;2224;49.814;8.650;2022-08-01T13:34:13;1.77;;;1.40;;
4422;SDS011;2224;49.814;8.650;2022-08-01T13:36:39;1.77;;;1.67;;
4422;SDS011;2224;49.814;8.650;2022-08-01T13:39:05;2.30;;;1.77;;
4422;SDS011;2224;49.814;8.650;2022-08-01T13:41:50;2.67;;;1.77;;
4422;SDS011;2224;49.814;8.650;2022-08-01T13:44:15;2.20;;;2.00;;
4422;SDS011;2224;49.814;8.650;2022-08-01T13:46:42;4.73;;;1.87;;
4422;SDS011;2224;49.814;8.650;2022-08-01T13:49:08;6.20;;;2.07;;
4422;SDS011;2224;49.814;8.650;2022-08-01T13:51:34;2.10;;;1.77;;
4422;SDS011;2224;49.814;8.650;2022-08-01T13:53:59;2.07;;;1.87;;
4422;SDS011;2224;49.814;8.650;2022-08-01T13:56:25;1.70;;;1.60;;
4422;SDS011;2224;49.814;8.650;2022-08-01T13:58:52;2.37;;;1.90;;
4422;SDS011;2224;49.814;8.650;2022-08-01T14:01:18;2.07;;;1.57;;
4422;SDS011;2224;49.814;8.650;2022-08-01T14:03:43;1.87;;;1.77;;
4422;SDS011;2224;49.814;8.650;2022-08-01T14:06:08;4.57;;;1.90;;
4422;SDS011;2224;49.814;8.650;2022-08-01T14:08:34;2.03;;;1.73;;
4422;SDS011;2224;49.814;8.650;2022-08-01T14:10:59;2.40;;;1.80;;
4422;SDS011;2224;49.814;8.650;2022-08-01T14:13:27;2.00;;;1.70;;
4422;SDS011;2224;49.814;8.650;2022-08-01T14:15:53;1.90;;;1.70;;
4422;SDS011;2224;49.814;8.650;2022-08-01T14:18:18;1.77;;;1.60;;
4422;SDS011;2224;49.814;8.650;2022-08-01T14:20:44;2.80;;;2.10;;
4422;SDS011;2224;49.814;8.650;2022-08-01T14:23:09;1.93;;;1.83;;
4422;SDS011;2224;49.814;8.650;2022-08-01T14:25:35;1.73;;;1.63;;
4422;SDS011;2224;49.814;8.650;2022-08-01T14:28:02;2.10;;;1.80;;
4422;SDS011;2224;49.814;8.650;2022-08-01T14:30:27;2.33;;;1.60;;
4422;SDS011;2224;49.814;8.650;2022-08-01T14:32:53;2.57;;;1.60;;
4422;SDS011;2224;49.814;8.650;2022-08-01T14:35:18;2.13;;;1.60;;
4422;SDS011;2224;49.814;8.650;2022-08-01T14:37:43;2.10;;;1.63;;
4422;SDS011;2224;49.814;8.650;2022-08-01T14:40:09;1.93;;;1.77;;
4422;SDS011;2224;49.814;8.650;2022-08-01T14:42:36;2.30;;;2.00;;
4422;SDS011;2224;49.814;8.650;2022-08-01T14:45:02;2.60;;;1.80;;
4422;SDS011;2224;49.814;8.650;2022-08-01T14:47:28;1.87;;;1.63;;
4422;SDS011;2224;49.814;8.650;2022-08-01T14:49:54;2.80;;;1.67;;
4422;SDS011;2224;49.814;8.650;2022-08-01T14:52:19;2.27;;;1.80;;
4422;SDS011;2224;49.814;8.650;2022-08-01T14:54:45;2.13;;;1.93;;
4422;SDS011;2224;49.814;8.650;2022-08-01T14:57:10;2.20;;;1.77;;
4422;SDS011;2224;49.814;8.650;2022-08-01T14:59:35;1.70;;;1.57;;
4422;SDS011;2224;49.814;8.650;2022-08-01T15:02:01;1.90;;;1.80;;
4422;SDS011;2224;49.814;8.650;2022-08-01T15:04:26;1.60;;;1.50;;
4422;SDS011;2224;49.814;8.650;2022-08-01T15:06:51;5.40;;;1.90;;
4422;SDS011;2224;49.814;8.650;2022-08-01T15:09:17;1.70;;;1.60;;
4422;SDS011;2224;49.814;8.650;2022-08-01T15:11:42;3.07;;;1.60;;
4422;SDS011;2224;49.814;8.650;2022-08-01T15:14:07;1.90;;;1.80;;
4422;SDS011;2224;49.814;8.650;2022-08-01T15:16:55;3.10;;;1.70;;
4422;SDS011;2224;49.814;8.650;2022-08-01T15:19:21;2.43;;;2.17;;
4422;SDS011;2224;49.814;8.650;2022-08-01T15:21:46;2.60;;;2.10;;
4422;SDS011;2224;49.814;8.650;2022-08-01T15:24:11;1.57;;;1.43;;
4422;SDS011;2224;49.814;8.650;2022-08-01T15:26:37;2.40;;;2.20;;
4422;SDS011;2224;49.814;8.650;2022-08-01T15:29:02;2.10;;;1.90;;
4422;SDS011;2224;49.814;8.650;2022-08-01T15:31:27;2.47;;;2.27;;
4422;SDS011;2224;49.814;8.650;2022-08-01T15:33:53;2.00;;;1.80;;
4422;SDS011;2224;49.814;8.650;2022-08-01T15:36:18;2.97;;;1.70;;
4422;SDS011;2224;49.814;8.650;2022-08-01T15:38:43;3.13;;;1.80;;
4422;SDS011;2224;49.814;8.650;2022-08-01T15:41:09;3.97;;;2.20;;
4422;SDS011;2224;49.814;8.650;2022-08-01T15:43:34;2.93;;;1.97;;
4422;SDS011;2224;49.814;8.650;2022-08-01T15:45:59;4.47;;;2.10;;
4422;SDS011;2224;49.814;8.650;2022-08-01T15:48:26;2.70;;;1.83;;
4422;SDS011;2224;49.814;8.650;2022-08-01T15:50:51;4.10;;;2.13;;
4422;SDS011;2224;49.814;8.650;2022-08-01T15:53:17;3.63;;;2.00;;
4422;SDS011;2224;49.814;8.650;2022-08-01T15:55:42;2.97;;;2.20;;
4422;SDS011;2224;49.814;8.650;2022-08-01T15:58:07;2.47;;;2.10;;
4422;SDS011;2224;49.814;8.650;2022-08-01T16:00:33;3.17;;;2.30;;
4422;SDS011;2224;49.814;8.650;2022-08-01T16:02:59;5.03;;;2.57;;